Terminal Aerodrome Forecast
Issued by NWS

Home | Current Version | Previous Version | Text Only | Print | Product List | Glossary On
Versions: 1 2 3 4 5 6 7 8 9 10 11 12 13
000
FTUS44 KLIX 241700
TAFMSY
TAF
KMSY 241720Z 2418/2518 VRB03KT P6SM SCT026 SCT150 BKN250
     FM250000 21004KT P6SM SCT250
     FM251400 26005KT P6SM BKN040=

USA.gov is the U.S. government's official web portal to all federal, state and local government web resources and services.